createdAt,value
2022-11-29T00:16:30.475Z,31.00
2022-11-29T00:38:16.393Z,28.20
2022-11-29T01:00:02.165Z,28.60
2022-11-29T01:21:47.878Z,29.70
2022-11-29T01:43:34.429Z,27.00
2022-11-29T02:05:22.502Z,25.70
2022-11-29T02:27:40.981Z,27.60
2022-11-29T02:49:42.930Z,23.80
2022-11-29T03:11:39.485Z,24.70
2022-11-29T03:33:31.189Z,22.90
2022-11-29T03:55:32.438Z,22.70
2022-11-29T04:40:25.287Z,23.00
2022-11-29T05:02:21.166Z,21.70
2022-11-29T05:24:18.664Z,20.10
2022-11-29T05:46:12.902Z,21.30
2022-11-29T06:08:07.191Z,21.40
2022-11-29T06:30:03.178Z,23.20
2022-11-29T06:52:02.976Z,22.40
2022-11-29T07:13:49.876Z,25.90
2022-11-29T07:35:44.662Z,23.30
2022-11-29T07:57:30.326Z,24.60
2022-11-29T08:28:02.857Z,23.10
2022-11-29T08:50:04.200Z,23.70
2022-11-29T09:11:50.231Z,24.60
2022-11-29T09:33:36.193Z,24.30
2022-11-29T09:55:47.204Z,27.00
2022-11-29T10:17:38.213Z,25.70
2022-11-29T10:39:29.994Z,23.30
2022-11-29T11:01:17.814Z,22.40
2022-11-29T11:23:06.043Z,24.50
2022-11-29T11:44:53.681Z,22.10
2022-11-29T12:06:44.849Z,22.70
2022-11-29T12:28:33.540Z,19.40
2022-11-29T12:50:32.653Z,21.10
2022-11-29T13:12:25.642Z,18.00
2022-11-29T13:34:15.928Z,19.90
2022-11-29T13:56:02.532Z,16.30
2022-11-29T14:17:54.340Z,16.10
2022-11-29T14:39:47.848Z,16.20
2022-11-29T15:01:35.214Z,19.70
2022-11-29T15:23:21.754Z,18.80
2022-11-29T15:45:40.520Z,18.70
2022-11-29T16:07:29.182Z,21.70
2022-11-29T16:29:28.319Z,21.50
2022-11-29T16:51:26.476Z,19.40
2022-11-29T17:13:13.467Z,19.60
2022-11-29T17:34:59.171Z,18.90
2022-11-29T17:56:44.914Z,17.80
2022-11-29T18:34:31.577Z,24.00
2022-11-29T18:56:19.403Z,24.70
2022-11-29T19:18:05.351Z,26.40
2022-11-29T19:39:51.955Z,27.50
2022-11-29T20:01:41.355Z,30.80
2022-11-29T20:23:27.923Z,31.30
2022-11-29T20:45:17.205Z,38.00
2022-11-29T21:07:03.843Z,38.30
2022-11-29T21:28:58.707Z,40.60
2022-11-29T21:50:44.471Z,42.30
2022-11-29T22:34:20.894Z,46.40
2022-11-29T22:56:09.305Z,46.70
2022-11-29T23:17:55.094Z,50.60
2022-11-29T23:39:40.829Z,48.30
